Time;durP1;ratioP1;P1;durP2;ratioP2;P2;SDS_P1;SDS_P2;PMS_P1;PMS_P2;Temp;Humidity;BMP_temperature;BMP_pressure;BME280_temperature;BME280_humidity;BME280_pressure;Samples;Min_cycle;Max_cycle;Signal;HPM_P1;HPM_P2
2023/03/25 00:01:32;;;;;;;5.07;0.82;;;;;;;8.46;80.30;100137.25;5034456;28;20033;-77
2023/03/25 00:03:59;;;;;;;2.80;0.90;;;;;;;8.47;79.97;100137.19;5036181;28;20154;-77
2023/03/25 00:06:26;;;;;;;4.22;1.38;;;;;;;8.48;79.65;100141.50;5039116;28;20469;-77
2023/03/25 00:08:52;;;;;;;3.20;1.33;;;;;;;8.50;79.46;100129.34;5036017;28;20135;-77
2023/03/25 00:11:17;;;;;;;2.45;0.95;;;;;;;8.48;79.76;100125.13;5034645;28;20546;-77
2023/03/25 00:13:43;;;;;;;5.80;1.00;;;;;;;8.53;79.21;100138.81;5034579;28;20029;-77
2023/03/25 00:16:09;;;;;;;3.83;0.90;;;;;;;8.50;79.34;100120.75;5036393;28;20025;-77
2023/03/25 00:18:36;;;;;;;4.60;0.90;;;;;;;8.55;78.78;100138.75;5028865;28;20040;-77
2023/03/25 00:21:03;;;;;;;4.40;1.15;;;;;;;8.56;78.50;100127.50;5033389;28;20020;-78
2023/03/25 00:23:31;;;;;;;6.53;1.00;;;;;;;8.53;78.91;100133.63;5028803;28;20022;-77
2023/03/25 00:25:59;;;;;;;6.43;1.20;;;;;;;8.54;78.63;100135.28;5030236;28;20033;-77
2023/03/25 00:28:29;;;;;;;5.72;1.20;;;;;;;8.55;78.65;100138.75;5029733;28;20100;-77
2023/03/25 00:30:59;;;;;;;6.15;1.05;;;;;;;8.56;78.57;100132.69;5037283;28;20111;-77
2023/03/25 00:33:24;;;;;;;5.75;1.15;;;;;;;8.56;78.62;100143.06;5028715;28;20072;-77
2023/03/25 00:35:57;;;;;;;4.93;1.13;;;;;;;8.55;78.33;100137.00;5029327;28;20018;-77
2023/03/25 00:38:24;;;;;;;5.78;1.25;;;;;;;8.52;78.46;100138.84;5028599;28;20404;-77
2023/03/25 00:40:49;;;;;;;4.05;0.93;;;;;;;8.49;77.97;100137.19;5030195;28;20017;-77
2023/03/25 00:43:14;;;;;;;6.15;1.10;;;;;;;8.52;77.94;100137.13;5029671;28;20052;-77
2023/03/25 00:45:40;;;;;;;4.28;0.80;;;;;;;8.52;77.32;100137.13;5029950;28;20028;-77
2023/03/25 00:48:05;;;;;;;3.85;1.10;;;;;;;8.53;77.40;100136.22;5033471;28;20083;-78
2023/03/25 00:50:30;;;;;;;4.38;1.00;;;;;;;8.53;77.75;100127.56;5037720;28;20025;-77
2023/03/25 00:52:56;;;;;;;6.10;0.93;;;;;;;8.55;77.37;100137.00;5042110;28;20111;-77
2023/03/25 00:55:21;;;;;;;7.10;1.10;;;;;;;8.54;77.49;100135.28;5034654;28;20074;-78
2023/03/25 00:57:46;;;;;;;5.72;0.80;;;;;;;8.56;77.23;100127.50;5036592;28;20054;-77
2023/03/25 01:00:15;;;;;;;8.52;1.08;;;;;;;8.56;76.95;100138.69;5030003;28;20021;-77
2023/03/25 01:02:41;;;;;;;3.00;0.98;;;;;;;8.55;77.14;100136.16;5031863;28;20089;-77
2023/03/25 01:05:10;;;;;;;4.82;1.05;;;;;;;8.57;77.04;100132.63;5040133;28;20057;-77
2023/03/25 01:07:37;;;;;;;5.05;1.08;;;;;;;8.54;77.11;100129.28;5029651;28;20423;-77
2023/03/25 01:10:03;;;;;;;3.75;0.88;;;;;;;8.55;76.67;100131.81;5030059;28;20028;-78
2023/03/25 01:12:29;;;;;;;4.97;1.02;;;;;;;8.54;77.11;100127.53;5029946;28;20022;-77
2023/03/25 01:14:54;;;;;;;5.43;1.20;;;;;;;8.54;76.76;100137.88;5028182;28;20083;-77
2023/03/25 01:17:19;;;;;;;6.85;1.50;;;;;;;8.55;76.78;100136.16;5030512;28;20021;-78
2023/03/25 01:19:45;;;;;;;2.95;0.90;;;;;;;8.55;76.91;100128.38;5033286;28;20079;-77
2023/03/25 01:22:11;;;;;;;3.95;1.08;;;;;;;8.54;76.67;100139.66;5035349;28;20114;-77
2023/03/25 01:24:36;;;;;;;3.20;0.95;;;;;;;8.51;76.81;100135.41;5037277;28;20075;-77
2023/03/25 01:27:02;;;;;;;3.25;1.00;;;;;;;8.50;77.22;100120.75;5034460;28;20057;-77
2023/03/25 01:29:27;;;;;;;2.45;0.90;;;;;;;8.47;77.35;100124.22;5034268;28;20028;-77
2023/03/25 01:31:53;;;;;;;4.47;1.20;;;;;;;8.48;77.13;100130.31;5033659;28;20108;-78
2023/03/25 01:34:18;;;;;;;5.43;1.08;;;;;;;8.47;77.00;100129.41;5032173;28;20025;-77
2023/03/25 01:36:47;;;;;;;3.40;1.10;;;;;;;8.47;77.08;100126.81;5033437;28;20387;-77
2023/03/25 01:39:17;;;;;;;4.20;1.17;;;;;;;8.47;77.18;100128.56;5034396;28;20037;-77
2023/03/25 01:41:44;;;;;;;3.78;1.05;;;;;;;8.45;77.24;100125.19;5034272;28;20024;-77
2023/03/25 01:44:13;;;;;;;3.15;1.00;;;;;;;8.46;77.12;100130.31;5033140;28;20025;-77
2023/03/25 01:46:38;;;;;;;3.10;0.95;;;;;;;8.46;77.24;100129.47;5032800;28;20128;-77
2023/03/25 01:49:07;;;;;;;2.05;0.80;;;;;;;8.43;77.45;100133.00;5033053;28;20134;-77
2023/03/25 01:51:39;;;;;;;3.67;1.05;;;;;;;8.44;77.37;100119.16;5033594;28;20032;-77
2023/03/25 01:54:05;;;;;;;3.60;1.00;;;;;;;8.41;77.63;100123.56;5032978;28;20029;-78
2023/03/25 01:56:35;;;;;;;4.43;1.42;;;;;;;8.40;78.25;100127.03;5033610;28;20108;-77
2023/03/25 01:59:04;;;;;;;4.47;1.65;;;;;;;8.38;78.40;100127.09;5033535;28;20036;-78
2023/03/25 02:01:31;;;;;;;4.07;1.13;;;;;;;8.34;78.77;100126.34;5032321;28;20025;-78
2023/03/25 02:04:01;;;;;;;4.70;1.13;;;;;;;8.32;78.69;100128.13;5031655;28;20045;-77
2023/03/25 02:06:35;;;;;;;3.22;1.00;;;;;;;8.28;78.93;100118.72;5031687;28;20091;-78
2023/03/25 02:09:05;;;;;;;3.50;0.90;;;;;;;8.24;79.12;100111.91;5032016;28;20032;-77
2023/03/25 02:11:32;;;;;;;3.67;1.05;;;;;;;8.22;79.31;100110.28;5030213;28;20040;-77
2023/03/25 02:14:03;;;;;;;3.63;1.02;;;;;;;8.20;79.33;100110.28;5032942;28;20577;-77
2023/03/25 02:16:48;;;;;;;2.33;0.85;;;;;;;8.24;78.80;100122.28;5034428;28;20070;-77
2023/03/25 02:19:34;;;;;;;4.13;1.13;;;;;;;8.19;78.77;100119.00;5032266;28;20040;-77
2023/03/25 02:22:40;;;;;;;3.55;0.90;;;;;;;8.22;78.73;100118.88;5031954;28;20037;-77
2023/03/25 02:25:34;;;;;;;5.35;0.90;;;;;;;8.19;78.76;100119.00;5032384;28;20040;-77
2023/03/25 02:28:41;;;;;;;3.45;1.00;;;;;;;8.26;78.56;100115.31;5032253;28;20029;-78
2023/03/25 02:31:27;;;;;;;4.55;1.40;;;;;;;8.19;79.08;100119.81;5033235;28;20427;-78
2023/03/25 02:34:11;;;;;;;2.85;0.98;;;;;;;8.13;79.89;100119.16;5032741;28;20029;-77
2023/03/25 02:36:58;;;;;;;4.05;1.13;;;;;;;8.10;80.70;100114.03;5035080;28;20032;-77
2023/03/25 02:39:51;;;;;;;4.15;1.00;;;;;;;8.07;80.64;100106.34;5033645;28;20051;-77
2023/03/25 02:42:25;;;;;;;2.40;0.98;;;;;;;8.03;81.92;100103.00;5030876;28;20033;-77
2023/03/25 02:45:10;;;;;;;3.60;1.17;;;;;;;8.02;80.88;100094.41;5032299;28;20025;-77
2023/03/25 02:47:43;;;;;;;5.40;1.10;;;;;;;8.04;80.57;100110.72;5033153;28;20388;-77
2023/03/25 02:50:27;;;;;;;4.15;0.93;;;;;;;8.02;80.71;100102.16;5034335;28;20075;-77
2023/03/25 02:52:57;;;;;;;3.88;1.00;;;;;;;8.02;80.57;100101.31;5032311;28;20040;-77
2023/03/25 02:55:24;;;;;;;2.15;0.75;;;;;;;8.03;80.27;100097.81;5031096;28;20040;-77
2023/03/25 02:57:56;;;;;;;4.10;1.10;;;;;;;7.97;80.53;100088.50;5031949;28;20056;-77
2023/03/25 03:00:25;;;;;;;3.05;1.00;;;;;;;7.98;80.20;100095.38;5043897;28;20037;-78
2023/03/25 03:02:58;;;;;;;2.67;0.90;;;;;;;7.95;80.57;100089.41;5031745;28;20056;-78
2023/03/25 03:05:25;;;;;;;6.00;1.17;;;;;;;7.96;80.67;100089.38;5032291;28;20102;-77
2023/03/25 03:08:18;;;;;;;5.35;1.30;;;;;;;7.94;80.79;100101.50;5032234;28;20071;-77
2023/03/25 03:10:50;;;;;;;5.03;0.90;;;;;;;7.94;81.17;100098.91;5032431;28;20025;-77
2023/03/25 03:13:25;;;;;;;5.28;1.33;;;;;;;7.88;81.41;100089.59;5031870;28;20036;-78
2023/03/25 03:16:04;;;;;;;3.80;0.85;;;;;;;7.92;81.26;100092.09;5031492;28;20376;-78
2023/03/25 03:18:43;;;;;;;2.78;0.88;;;;;;;7.89;81.39;100095.59;5031559;28;20028;-77
2023/03/25 03:21:22;;;;;;;6.97;1.13;;;;;;;7.80;82.30;100085.50;5031222;28;20037;-77
2023/03/25 03:23:50;;;;;;;6.25;1.13;;;;;;;7.75;82.53;100090.81;5033332;28;20068;-77
2023/03/25 03:26:32;;;;;;;4.25;1.10;;;;;;;7.73;83.10;100085.66;5030729;28;20022;-77
2023/03/25 03:29:10;;;;;;;7.07;1.10;;;;;;;7.70;83.47;100085.72;5029486;28;20487;-77
2023/03/25 03:31:53;;;;;;;6.65;1.30;;;;;;;7.73;83.62;100096.00;5031268;28;20060;-77
2023/03/25 03:34:34;;;;;;;5.47;1.05;;;;;;;7.70;84.61;100088.31;5030580;28;20041;-77
2023/03/25 03:37:01;;;;;;;5.07;1.10;;;;;;;7.67;85.07;100095.31;5030602;28;20017;-77
2023/03/25 03:39:31;;;;;;;4.03;1.00;;;;;;;7.66;85.66;100088.44;5030330;28;20480;-77
2023/03/25 03:42:09;;;;;;;5.70;1.13;;;;;;;7.64;85.56;100101.44;5028755;28;20544;-77
2023/03/25 03:44:38;;;;;;;6.97;1.00;;;;;;;7.65;85.14;100103.13;5031459;28;20473;-77
2023/03/25 03:47:09;;;;;;;4.60;1.10;;;;;;;7.64;85.33;100096.25;5031020;28;20036;-77
2023/03/25 03:49:43;;;;;;;5.47;1.50;;;;;;;7.64;85.27;100096.25;5031039;28;20104;-77
2023/03/25 03:52:49;;;;;;;5.40;1.20;;;;;;;7.69;84.69;100094.38;5047969;28;20029;-77
2023/03/25 03:55:21;;;;;;;7.15;1.10;;;;;;;7.68;84.96;100084.94;5012171;28;20041;-77
2023/03/25 03:57:53;;;;;;;7.20;1.00;;;;;;;7.69;84.30;100102.16;5031670;28;20045;-77
2023/03/25 04:00:25;;;;;;;4.57;1.10;;;;;;;7.69;84.30;100088.38;5030080;28;20029;-77
2023/03/25 04:02:57;;;;;;;8.02;1.60;;;;;;;7.72;84.04;100094.31;5031341;28;20035;-78
2023/03/25 04:05:29;;;;;;;7.60;1.65;;;;;;;7.72;83.96;100091.72;5032199;28;20025;-77
2023/03/25 04:08:01;;;;;;;6.18;1.23;;;;;;;7.72;83.74;100083.94;5031177;28;20044;-77
2023/03/25 04:10:38;;;;;;;;;;;;;;;7.76;83.65;100084.75;5031011;28;20025;-77
2023/03/25 04:13:09;;;;;;;6.55;1.08;;;;;;;7.71;83.38;100087.41;5031464;28;19913;-77
2023/03/25 04:15:35;;;;;;;5.47;1.02;;;;;;;7.70;83.63;100090.06;5029889;28;20085;-77
2023/03/25 04:18:02;;;;;;;6.75;1.35;;;;;;;7.70;83.38;100100.41;5031525;28;20187;-78
2023/03/25 04:20:32;;;;;;;6.82;1.27;;;;;;;7.69;83.55;100089.19;5031208;28;20032;-77
2023/03/25 04:22:58;;;;;;;7.65;1.25;;;;;;;7.68;83.85;100087.53;5029738;28;20085;-77
2023/03/25 04:25:24;;;;;;;5.38;1.00;;;;;;;7.68;83.78;100095.28;5031451;28;20022;-77
2023/03/25 04:27:52;;;;;;;4.00;0.70;;;;;;;7.69;83.28;100104.72;5031346;28;20024;-78
2023/03/25 04:30:18;;;;;;;4.80;1.00;;;;;;;7.70;83.46;100096.06;5030955;28;20562;-77
2023/03/25 04:32:47;;;;;;;5.03;1.00;;;;;;;7.69;83.47;100098.72;5031850;28;20079;-77
2023/03/25 04:35:17;;;;;;;5.15;1.55;;;;;;;7.67;83.41;100085.81;5031136;28;20423;-77
2023/03/25 04:37:47;;;;;;;5.00;0.90;;;;;;;7.68;82.86;100090.13;5029471;28;20017;-78
2023/03/25 04:40:17;;;;;;;4.88;1.02;;;;;;;7.72;82.89;100094.31;5030174;28;20029;-77
2023/03/25 04:42:45;;;;;;;3.83;0.85;;;;;;;7.71;83.06;100096.94;5029338;28;20395;-78
2023/03/25 04:45:13;;;;;;;5.13;0.85;;;;;;;7.69;82.84;100094.38;5031061;28;20021;-77
2023/03/25 04:47:45;;;;;;;5.30;1.08;;;;;;;7.68;83.24;100103.06;5029616;28;20108;-78
2023/03/25 04:50:21;;;;;;;5.47;0.88;;;;;;;7.72;83.05;100096.06;5031489;28;20018;-77
2023/03/25 04:52:49;;;;;;;4.45;0.73;;;;;;;7.71;82.96;100104.72;5030635;28;20021;-78
2023/03/25 04:55:16;;;;;;;3.90;0.90;;;;;;;7.72;82.77;100099.47;5033196;28;20044;-78
2023/03/25 04:57:43;;;;;;;3.85;0.77;;;;;;;7.70;83.11;100095.25;5033350;28;20492;-77
2023/03/25 05:00:10;;;;;;;4.38;0.90;;;;;;;7.69;83.46;100109.91;5047353;28;20083;-77
2023/03/25 05:02:36;;;;;;;4.57;0.90;;;;;;;7.69;83.88;100104.72;5033796;28;20017;-77
2023/03/25 05:05:03;;;;;;;5.38;1.05;;;;;;;7.67;84.35;100101.34;5053476;28;20049;-77
2023/03/25 05:07:28;;;;;;;4.15;0.98;;;;;;;7.59;84.60;100103.28;5050167;28;20048;-77
2023/03/25 05:09:55;;;;;;;3.20;0.75;;;;;;;7.54;85.71;100092.19;5034056;28;20029;-77
2023/03/25 05:12:21;;;;;;;5.05;0.98;;;;;;;7.50;86.04;100093.16;5032691;28;20024;-77
2023/03/25 05:14:46;;;;;;;4.90;1.05;;;;;;;7.50;85.79;100093.16;5034668;28;20029;-77
2023/03/25 05:17:12;;;;;;;5.22;0.90;;;;;;;7.47;85.94;100101.00;5034184;28;20469;-76
2023/03/25 05:19:37;;;;;;;7.50;1.15;;;;;;;7.49;85.20;100092.31;5033731;28;20025;-77
2023/03/25 05:22:03;;;;;;;7.70;1.30;;;;;;;7.49;85.49;100104.41;5031757;28;20427;-77
2023/03/25 05:24:29;;;;;;;2.90;0.70;;;;;;;7.52;85.33;100105.19;5034915;28;20017;-77
2023/03/25 05:26:54;;;;;;;8.25;1.00;;;;;;;7.50;86.16;100103.53;5033480;28;20396;-77
2023/03/25 05:29:20;;;;;;;5.85;0.90;;;;;;;7.47;86.79;100103.59;5033423;28;20033;-77
2023/03/25 05:31:45;;;;;;;3.60;0.80;;;;;;;7.44;86.46;100112.25;5033919;28;20033;-77
2023/03/25 05:34:13;;;;;;;4.75;1.00;;;;;;;7.41;87.31;100110.63;5033057;28;20021;-77
2023/03/25 05:36:38;;;;;;;6.40;1.20;;;;;;;7.40;87.07;100108.91;5033473;28;20484;-77
2023/03/25 05:39:04;;;;;;;6.07;1.15;;;;;;;7.39;86.80;100099.44;5034182;28;20026;-77
2023/03/25 05:41:37;;;;;;;4.97;1.00;;;;;;;7.39;86.63;100109.78;5034571;28;20109;-77
2023/03/25 05:44:07;;;;;;;4.43;1.63;;;;;;;7.38;86.95;100112.44;5033561;28;20087;-77
2023/03/25 05:46:32;;;;;;;3.53;0.90;;;;;;;7.40;86.61;100108.06;5033695;28;20022;-77
2023/03/25 05:48:59;;;;;;;5.78;0.98;;;;;;;7.43;86.22;100114.03;5033037;28;20032;-77
2023/03/25 05:51:25;;;;;;;4.75;1.05;;;;;;;7.44;85.75;100115.72;5033719;28;20018;-77
2023/03/25 05:53:52;;;;;;;3.63;0.90;;;;;;;7.48;85.32;100116.50;5034074;28;20189;-78
2023/03/25 05:56:18;;;;;;;5.35;1.00;;;;;;;7.49;84.95;100119.94;5033807;28;20028;-77
2023/03/25 05:58:49;;;;;;;2.67;0.90;;;;;;;7.50;84.83;100119.88;5033574;28;20025;-77
2023/03/25 06:01:15;;;;;;;4.45;1.35;;;;;;;7.52;84.86;100132.78;5030836;28;20022;-78
2023/03/25 06:03:42;;;;;;;3.85;1.20;;;;;;;7.57;84.44;100125.75;5029589;28;20041;-77
2023/03/25 06:06:17;;;;;;;6.05;1.20;;;;;;;7.58;83.74;100135.22;5030428;28;20452;-77
2023/03/25 06:08:48;;;;;;;2.40;1.00;;;;;;;7.61;83.72;100142.94;5031710;28;20033;-78
2023/03/25 06:11:14;;;;;;;;;;;;;;;7.61;83.42;100135.16;5047376;28;20379;-77
2023/03/25 06:13:41;;;;;;;5.40;0.90;;;;;;;7.59;83.43;100142.97;5033213;28;19940;-77
2023/03/25 06:16:08;;;;;;;5.68;0.95;;;;;;;7.59;82.71;100126.56;5033093;28;20025;-77
2023/03/25 06:18:35;;;;;;;6.20;1.30;;;;;;;7.56;82.76;100134.41;5032711;28;20056;-77
2023/03/25 06:21:00;;;;;;;5.63;1.02;;;;;;;7.52;82.83;100146.59;5033148;28;20034;-77
2023/03/25 06:23:26;;;;;;;4.43;1.13;;;;;;;7.49;82.76;100138.06;5033582;28;20096;-77
2023/03/25 06:25:52;;;;;;;3.92;1.40;;;;;;;7.52;82.26;100140.53;5033719;28;20028;-78
2023/03/25 06:28:18;;;;;;;6.65;1.15;;;;;;;7.47;82.15;100140.66;5033109;28;20152;-77
2023/03/25 06:30:45;;;;;;;5.18;1.20;;;;;;;7.46;82.47;100140.72;5032116;28;20510;-77
2023/03/25 06:33:10;;;;;;;4.93;1.10;;;;;;;7.43;82.28;100139.91;5033109;28;20048;-77
2023/03/25 06:35:35;;;;;;;6.07;0.90;;;;;;;7.44;82.19;100140.72;5032698;28;20345;-77
2023/03/25 06:38:01;;;;;;;5.72;1.10;;;;;;;7.42;82.02;100133.03;5034979;28;20049;-77
2023/03/25 06:40:26;;;;;;;6.25;1.23;;;;;;;7.44;81.89;100144.19;5034035;28;20626;-76
2023/03/25 06:42:52;;;;;;;6.38;1.58;;;;;;;7.49;82.00;100136.31;5031993;28;20063;-77
2023/03/25 06:45:17;;;;;;;5.43;1.05;;;;;;;7.52;81.70;100144.00;5032025;28;20435;-77
2023/03/25 06:47:42;;;;;;;10.30;1.48;;;;;;;7.60;81.67;100151.56;5033500;28;20028;-78
2023/03/25 06:50:08;;;;;;;4.97;0.90;;;;;;;7.69;81.16;100142.72;5036916;28;20037;-77
2023/03/25 06:52:33;;;;;;;5.78;1.38;;;;;;;7.74;81.02;100154.66;5033231;28;20033;-77
2023/03/25 06:54:58;;;;;;;5.72;1.33;;;;;;;7.77;80.94;100153.72;5031564;28;20432;-78
2023/03/25 06:57:24;;;;;;;6.90;1.20;;;;;;;7.82;80.45;100151.88;5031143;28;20048;-77
2023/03/25 06:59:49;;;;;;;6.47;1.05;;;;;;;7.87;80.00;100149.16;5033182;28;20068;-77
2023/03/25 07:02:14;;;;;;;6.78;1.30;;;;;;;7.88;80.44;100162.09;5028838;28;20025;-77
2023/03/25 07:04:40;;;;;;;6.00;1.33;;;;;;;7.90;80.05;100152.56;5032677;28;20057;-77
2023/03/25 07:07:07;;;;;;;6.88;1.60;;;;;;;7.96;79.72;100161.03;5032528;28;20032;-77
2023/03/25 07:09:32;;;;;;;8.15;1.30;;;;;;;8.00;79.50;100155.75;5033380;28;20052;-77
2023/03/25 07:11:58;;;;;;;6.30;1.20;;;;;;;8.01;79.41;100152.28;5032235;28;20140;-77
2023/03/25 07:14:23;;;;;;;5.57;1.60;;;;;;;8.04;79.18;100146.16;5032760;28;20026;-77
2023/03/25 07:16:49;;;;;;;6.60;1.50;;;;;;;8.05;79.15;100160.81;5033020;28;20040;-77
2023/03/25 07:19:14;;;;;;;9.45;1.88;;;;;;;8.09;78.97;100153.78;5031089;28;20086;-77
2023/03/25 07:21:40;;;;;;;3.92;1.10;;;;;;;8.06;79.54;100149.56;5033202;28;20497;-77
2023/03/25 07:24:05;;;;;;;4.85;1.20;;;;;;;8.11;79.39;100152.03;5032974;28;20135;-77
2023/03/25 07:26:30;;;;;;;6.97;1.30;;;;;;;8.14;79.45;100162.31;5030352;28;20017;-77
2023/03/25 07:28:56;;;;;;;10.40;1.70;;;;;;;8.20;79.50;100164.72;5032543;28;20055;-77
2023/03/25 07:31:21;;;;;;;6.47;1.42;;;;;;;8.29;78.84;100161.88;5031379;28;20531;-77
2023/03/25 07:33:48;;;;;;;8.55;1.25;;;;;;;8.31;79.27;100175.66;5032614;28;20396;-77
2023/03/25 07:36:13;;;;;;;7.03;1.30;;;;;;;8.33;79.61;100168.69;5031945;28;20460;-77
2023/03/25 07:38:38;;;;;;;10.25;1.67;;;;;;;8.30;79.91;100173.97;5030920;28;20032;-77
2023/03/25 07:41:12;;;;;;;10.70;1.77;;;;;;;8.25;80.15;100169.78;5032110;28;20379;-77
2023/03/25 07:43:37;;;;;;;7.47;1.65;;;;;;;8.19;80.47;100165.63;5030563;28;20033;-77
2023/03/25 07:46:03;;;;;;;7.70;1.50;;;;;;;8.19;80.63;100165.63;5030245;28;20400;-77
2023/03/25 07:48:28;;;;;;;7.25;1.40;;;;;;;8.18;80.19;100167.34;5032491;28;20025;-77
2023/03/25 07:50:54;;;;;;;6.30;1.10;;;;;;;8.13;80.42;100165.78;5031598;28;20034;-77
2023/03/25 07:53:19;;;;;;;8.40;1.60;;;;;;;8.13;80.76;100176.16;5032466;28;20032;-78
2023/03/25 07:55:45;;;;;;;5.43;1.33;;;;;;;8.11;81.26;100183.09;5031435;28;20025;-78
2023/03/25 07:58:11;;;;;;;9.43;1.77;;;;;;;8.10;81.10;100181.41;5032181;28;20032;-77
2023/03/25 08:00:36;;;;;;;7.70;1.27;;;;;;;8.11;81.55;100183.09;5031556;28;20101;-77
2023/03/25 08:03:02;;;;;;;7.25;1.80;;;;;;;8.15;81.47;100184.75;5028727;28;20108;-77
2023/03/25 08:05:28;;;;;;;8.20;1.48;;;;;;;8.17;81.94;100186.38;5032533;28;20503;-77
2023/03/25 08:07:54;;;;;;;6.40;1.23;;;;;;;8.22;81.85;100183.66;5031132;28;20067;-77
2023/03/25 08:10:20;;;;;;;8.43;1.67;;;;;;;8.24;81.83;100189.66;5030707;28;20494;-77
2023/03/25 08:12:46;;;;;;;7.65;1.25;;;;;;;8.22;82.51;100194.03;5031788;28;20043;-77
2023/03/25 08:15:12;;;;;;;7.88;1.52;;;;;;;8.29;81.58;100200.75;5031814;28;20048;-78
2023/03/25 08:17:38;;;;;;;7.78;1.50;;;;;;;8.31;82.29;100191.22;5028675;28;20021;-77
2023/03/25 08:20:05;;;;;;;6.57;1.25;;;;;;;8.37;81.90;100204.91;5032149;28;20025;-78
2023/03/25 08:22:31;;;;;;;9.63;2.10;;;;;;;8.39;82.13;100203.97;5030260;28;20013;-77
2023/03/25 08:24:57;;;;;;;14.30;1.73;;;;;;;8.39;82.13;100209.16;5027472;28;20037;-77
2023/03/25 08:27:22;;;;;;;9.63;1.65;;;;;;;8.41;81.75;100199.59;5030434;28;20025;-77
2023/03/25 08:29:53;;;;;;;12.90;1.50;;;;;;;8.38;82.27;100203.97;5031110;28;20021;-77
2023/03/25 08:32:19;;;;;;;10.03;1.50;;;;;;;8.38;82.63;100206.56;5041252;28;20029;-77
2023/03/25 08:34:45;;;;;;;9.80;1.73;;;;;;;8.40;82.18;100204.78;5030771;28;20099;-77
2023/03/25 08:37:10;;;;;;;8.00;1.75;;;;;;;8.44;83.02;100201.25;5031901;28;20465;-77
2023/03/25 08:39:38;;;;;;;8.23;1.35;;;;;;;8.47;82.50;100220.13;5030897;28;20052;-77
2023/03/25 08:42:08;;;;;;;6.18;1.20;;;;;;;8.53;82.19;100221.78;5031190;28;20033;-77
2023/03/25 08:44:34;;;;;;;8.43;1.75;;;;;;;8.51;83.18;100233.94;5029566;28;20144;-77
2023/03/25 08:47:00;;;;;;;7.60;1.67;;;;;;;8.56;83.07;100218.22;5028392;28;20035;-77
2023/03/25 08:49:25;;;;;;;9.88;2.00;;;;;;;8.59;83.56;100224.19;5031648;28;20104;-76
2023/03/25 08:51:50;;;;;;;7.45;1.67;;;;;;;8.65;83.46;100224.03;5031289;28;20440;-77
2023/03/25 08:54:16;;;;;;;6.72;1.45;;;;;;;8.65;84.32;100217.97;5029636;28;20079;-76
2023/03/25 08:56:41;;;;;;;6.20;1.50;;;;;;;8.69;83.39;100223.94;5032165;28;20079;-77
2023/03/25 08:59:06;;;;;;;9.50;2.35;;;;;;;8.68;83.64;100230.03;5030598;28;20523;-77
2023/03/25 09:01:32;;;;;;;6.93;1.75;;;;;;;8.71;83.44;100220.41;5030046;28;20029;-77
2023/03/25 09:03:57;;;;;;;7.80;1.70;;;;;;;8.70;84.15;100221.28;5029288;28;20156;-77
2023/03/25 09:06:22;;;;;;;8.73;1.70;;;;;;;8.70;83.96;100220.47;5028453;28;20369;-77
2023/03/25 09:08:48;;;;;;;5.97;1.55;;;;;;;8.69;84.23;100223.94;5029691;28;20033;-77
2023/03/25 09:11:14;;;;;;;8.68;1.80;;;;;;;8.67;84.73;100223.13;5030956;28;20029;-77
2023/03/25 09:13:40;;;;;;;9.07;1.73;;;;;;;8.72;84.37;100218.63;5029330;28;20417;-76
2023/03/25 09:16:06;;;;;;;8.90;1.75;;;;;;;8.73;84.37;100212.56;5030271;28;20028;-76
2023/03/25 09:18:31;;;;;;;9.45;1.92;;;;;;;8.77;85.48;100201.22;5026970;28;20202;-76
2023/03/25 09:21:00;;;;;;;8.98;1.70;;;;;;;8.87;85.73;100188.84;5034358;28;20535;-76
2023/03/25 09:23:25;;;;;;;7.97;1.70;;;;;;;9.00;84.58;100199.72;5033955;28;20119;-76
2023/03/25 09:25:51;;;;;;;6.30;1.50;;;;;;;9.14;84.23;100213.13;5034943;28;20112;-77
2023/03/25 09:28:16;;;;;;;9.48;2.38;;;;;;;9.21;83.65;100218.97;5035255;28;20791;-77
2023/03/25 09:30:41;;;;;;;8.65;1.77;;;;;;;9.27;83.03;100201.47;5037355;28;20041;-77
2023/03/25 09:33:07;;;;;;;9.48;2.00;;;;;;;9.31;82.30;100203.97;5030261;28;20095;-77
2023/03/25 09:35:32;;;;;;;7.32;1.98;;;;;;;9.43;82.30;100215.72;5028550;28;20048;-77
2023/03/25 09:37:58;;;;;;;11.68;2.33;;;;;;;9.51;80.39;100206.81;5036278;28;20033;-77
2023/03/25 09:40:23;;;;;;;8.02;1.90;;;;;;;9.61;80.72;100214.28;5029049;28;20029;-77
2023/03/25 09:42:59;;;;;;;9.90;1.90;;;;;;;9.72;80.19;100222.59;5038517;28;20025;-76
2023/03/25 09:45:40;;;;;;;8.30;1.85;;;;;;;9.81;79.95;100219.69;5034848;28;20064;-77
2023/03/25 09:48:14;;;;;;;12.25;2.22;;;;;;;9.91;79.26;100222.84;5052227;28;20487;-77
2023/03/25 09:50:43;;;;;;;10.00;2.42;;;;;;;9.98;77.94;100218.28;5034214;28;20033;-77
2023/03/25 09:53:09;;;;;;;8.23;2.00;;;;;;;9.98;77.64;100232.16;5031573;28;20095;-77
2023/03/25 09:55:39;;;;;;;12.25;2.10;;;;;;;9.95;78.18;100231.38;5032840;28;20041;-78
2023/03/25 09:58:27;;;;;;;9.13;1.70;;;;;;;9.90;78.70;100223.75;5035353;28;20032;-77
2023/03/25 10:01:13;;;;;;;10.13;2.03;;;;;;;9.92;78.55;100236.66;5031669;28;20029;-77
2023/03/25 10:04:03;;;;;;;11.13;1.83;;;;;;;9.96;77.72;100238.28;5068292;28;20157;-78
2023/03/25 10:06:32;;;;;;;8.25;1.90;;;;;;;9.95;77.44;100227.03;5034741;28;20029;-77
2023/03/25 10:09:39;;;;;;;7.57;2.00;;;;;;;9.96;76.92;100230.47;5035138;28;20029;-77
2023/03/25 10:12:09;;;;;;;10.80;2.00;;;;;;;9.97;76.19;100235.63;4974059;28;20161;-77
2023/03/25 10:14:54;;;;;;;10.02;2.13;;;;;;;10.00;76.80;100234.69;5027430;28;20090;-76
2023/03/25 10:17:25;;;;;;;11.90;2.53;;;;;;;10.06;75.76;100234.50;5030618;28;20104;-77
2023/03/25 10:20:13;;;;;;;10.85;2.20;;;;;;;9.99;77.24;100233.81;5034843;28;20029;-76
2023/03/25 10:22:56;;;;;;;8.43;2.13;;;;;;;10.00;76.99;100239.88;5036881;28;20029;-77
2023/03/25 10:25:27;;;;;;;10.05;2.50;;;;;;;9.93;77.27;100252.22;5039017;28;20041;-77
2023/03/25 10:27:54;;;;;;;12.90;2.53;;;;;;;9.91;77.93;100250.56;5028281;28;20467;-77
2023/03/25 10:30:23;;;;;;;13.98;2.40;;;;;;;9.73;80.69;100242.47;5029842;28;20025;-76
2023/03/25 10:32:54;;;;;;;10.77;2.25;;;;;;;9.63;80.28;100249.72;5029388;28;20032;-77
2023/03/25 10:35:27;;;;;;;11.85;2.67;;;;;;;9.50;81.27;100249.25;5035927;28;20041;-76
2023/03/25 10:37:57;;;;;;;10.05;2.45;;;;;;;9.41;82.57;100233.94;5032793;28;20048;-76
2023/03/25 10:40:30;;;;;;;11.68;2.40;;;;;;;9.37;82.14;100245.31;5031418;28;20108;-76
2023/03/25 10:43:10;;;;;;;13.00;2.42;;;;;;;9.35;83.72;100253.16;5034854;28;20546;-75
2023/03/25 10:45:37;;;;;;;10.15;2.70;;;;;;;9.19;85.51;100247.56;5033936;28;20080;-75
2023/03/25 10:48:20;;;;;;;10.32;2.40;;;;;;;9.07;85.43;100235.81;5033247;28;20044;-75
2023/03/25 10:50:47;;;;;;;9.98;2.28;;;;;;;9.00;84.73;100270.59;5031218;28;20032;-75
2023/03/25 10:53:24;;;;;;;10.90;2.60;;;;;;;8.83;86.90;100254.66;5032899;28;20485;-75
2023/03/25 10:55:57;;;;;;;11.48;2.17;;;;;;;8.84;88.77;100265.00;5033480;28;20025;-75
2023/03/25 10:58:23;;;;;;;10.23;2.22;;;;;;;8.85;89.10;100253.75;5032672;28;20049;-75
2023/03/25 11:00:48;;;;;;;13.00;2.20;;;;;;;8.90;89.23;100256.19;5027319;28;20037;-75
2023/03/25 11:03:23;;;;;;;14.27;2.60;;;;;;;9.00;89.29;100254.19;5031898;28;20048;-76
2023/03/25 11:05:50;;;;;;;10.65;2.65;;;;;;;9.15;90.25;100255.47;5031735;28;20404;-75
2023/03/25 11:08:20;;;;;;;12.18;3.10;;;;;;;9.26;89.25;100264.66;5032221;28;20115;-76
2023/03/25 11:10:54;;;;;;;14.35;2.67;;;;;;;9.32;86.73;100252.41;5033115;28;20116;-75
2023/03/25 11:13:24;;;;;;;11.88;2.47;;;;;;;9.38;87.09;100247.03;5032246;28;20033;-75
2023/03/25 11:15:52;;;;;;;8.07;2.30;;;;;;;9.51;85.78;100247.47;5034000;28;20480;-76
2023/03/25 11:18:26;;;;;;;9.23;2.30;;;;;;;9.65;84.46;100239.28;5034125;28;20033;-76
2023/03/25 11:20:56;;;;;;;9.18;2.35;;;;;;;9.72;83.39;100245.97;5032972;28;20499;-75
2023/03/25 11:23:29;;;;;;;8.60;2.17;;;;;;;9.82;82.40;100259.53;5034256;28;20033;-76
2023/03/25 11:26:05;;;;;;;9.70;1.73;;;;;;;9.92;78.01;100236.66;5032118;28;20510;-76
2023/03/25 11:28:41;;;;;;;8.93;1.27;;;;;;;9.97;76.94;100255.56;5031999;28;20028;-76
2023/03/25 11:31:21;;;;;;;9.55;1.67;;;;;;;10.07;77.02;100267.38;5030301;28;20040;-76
2023/03/25 11:34:02;;;;;;;8.88;1.58;;;;;;;10.16;76.59;100251.47;5032382;28;20036;-76
2023/03/25 11:36:29;;;;;;;5.60;1.10;;;;;;;10.20;74.79;100257.41;5031556;28;20025;-76
2023/03/25 11:38:58;;;;;;;5.72;0.80;;;;;;;10.24;73.20;100252.97;5033604;28;20075;-76
2023/03/25 11:41:28;;;;;;;8.90;0.93;;;;;;;10.22;72.29;100270.34;5026970;28;20029;-76
2023/03/25 11:43:53;;;;;;;7.03;1.10;;;;;;;10.17;73.30;100292.16;5031078;28;20036;-76